createdAt,value
2019-05-09T00:01:15.686Z,6.33
2019-05-09T00:03:45.541Z,6.63
2019-05-09T00:06:15.180Z,8.83
2019-05-09T00:08:45.006Z,7.37
2019-05-09T00:11:14.984Z,6.13
2019-05-09T00:13:44.688Z,7.43
2019-05-09T00:16:14.767Z,6.90
2019-05-09T00:18:44.569Z,6.90
2019-05-09T00:21:19.319Z,6.47
2019-05-09T00:23:49.126Z,6.60
2019-05-09T00:26:18.801Z,7.87
2019-05-09T00:28:53.339Z,7.33
2019-05-09T00:31:43.809Z,7.53
2019-05-09T00:34:18.956Z,7.10
2019-05-09T00:36:48.651Z,9.00
2019-05-09T00:39:18.372Z,6.60
2019-05-09T00:41:47.875Z,6.77
2019-05-09T00:44:23.313Z,7.17
2019-05-09T00:47:05.497Z,7.90
2019-05-09T00:49:34.938Z,7.67
2019-05-09T00:52:04.429Z,7.80
2019-05-09T00:54:34.048Z,8.03
2019-05-09T00:57:03.451Z,7.23
2019-05-09T00:59:33.344Z,6.40
2019-05-09T01:02:03.959Z,6.73
2019-05-09T01:04:33.691Z,7.47
2019-05-09T01:07:03.553Z,7.50
2019-05-09T01:09:33.622Z,6.73
2019-05-09T01:12:04.045Z,6.60
2019-05-09T01:14:34.167Z,6.33
2019-05-09T01:17:04.365Z,8.00
2019-05-09T01:19:34.047Z,7.40
2019-05-09T01:22:03.899Z,7.50
2019-05-09T01:24:33.929Z,6.63
2019-05-09T01:27:03.888Z,7.90
2019-05-09T01:29:33.883Z,7.63
2019-05-09T01:32:07.411Z,7.60
2019-05-09T01:34:37.445Z,8.50
2019-05-09T01:37:08.226Z,7.07
2019-05-09T01:39:38.131Z,6.97
2019-05-09T01:42:07.639Z,7.00
2019-05-09T01:44:37.040Z,7.10
2019-05-09T01:47:06.854Z,9.30
2019-05-09T01:49:36.256Z,7.30
2019-05-09T01:52:06.162Z,7.17
2019-05-09T01:54:37.699Z,7.00
2019-05-09T01:57:07.501Z,8.00
2019-05-09T01:59:36.912Z,7.67
2019-05-09T02:02:08.748Z,8.87
2019-05-09T02:04:38.533Z,8.37
2019-05-09T02:07:08.388Z,14.70
2019-05-09T02:09:38.105Z,16.03
2019-05-09T02:12:07.772Z,19.07
2019-05-09T02:14:44.165Z,14.03
2019-05-09T02:17:33.462Z,9.40
2019-05-09T02:20:04.008Z,9.93
2019-05-09T02:22:34.496Z,11.87
2019-05-09T02:25:09.331Z,9.23
2019-05-09T02:27:38.724Z,8.50
2019-05-09T02:30:10.203Z,8.33
2019-05-09T02:32:40.029Z,8.00
2019-05-09T02:35:10.200Z,10.33
2019-05-09T02:37:40.000Z,8.87
2019-05-09T02:40:10.630Z,9.43
2019-05-09T02:42:40.483Z,7.30
2019-05-09T02:45:10.653Z,8.13
2019-05-09T02:47:40.534Z,7.40
2019-05-09T02:50:10.699Z,9.37
2019-05-09T02:52:40.420Z,7.53
2019-05-09T02:55:10.871Z,8.80
2019-05-09T02:57:40.839Z,8.23
2019-05-09T03:00:20.260Z,8.43
2019-05-09T03:03:03.822Z,8.57
2019-05-09T03:05:33.553Z,8.27
2019-05-09T03:08:03.187Z,8.30
2019-05-09T03:10:32.862Z,9.07
2019-05-09T03:13:02.516Z,8.30
2019-05-09T03:15:32.843Z,8.30
2019-05-09T03:18:02.244Z,9.30
2019-05-09T03:20:53.669Z,8.97
2019-05-09T03:23:23.181Z,7.80
2019-05-09T03:25:52.895Z,8.47
2019-05-09T03:28:44.940Z,7.70
2019-05-09T03:31:19.506Z,8.40
2019-05-09T03:33:50.023Z,8.57
2019-05-09T03:36:18.745Z,9.50
2019-05-09T03:38:48.142Z,8.20
2019-05-09T03:41:17.917Z,7.77
2019-05-09T03:43:48.290Z,7.80
2019-05-09T03:46:34.417Z,8.07
2019-05-09T03:49:12.640Z,7.83
2019-05-09T03:51:42.363Z,8.43
2019-05-09T03:54:12.056Z,9.77
2019-05-09T03:56:47.815Z,11.60
2019-05-09T03:59:17.674Z,9.90
2019-05-09T04:01:50.144Z,8.90
2019-05-09T04:04:19.555Z,8.10
2019-05-09T04:06:49.369Z,8.80
2019-05-09T04:09:19.143Z,8.80
2019-05-09T04:11:48.832Z,10.00
2019-05-09T04:14:21.912Z,9.40
2019-05-09T04:16:51.644Z,8.40
2019-05-09T04:19:21.411Z,10.30
2019-05-09T04:21:51.263Z,10.47
2019-05-09T04:24:21.248Z,10.13
2019-05-09T04:26:59.185Z,10.07
2019-05-09T04:29:28.899Z,10.57
2019-05-09T04:31:58.301Z,9.27
2019-05-09T04:34:27.853Z,11.30
2019-05-09T04:36:57.875Z,9.47
2019-05-09T04:39:28.350Z,10.23
2019-05-09T04:42:03.638Z,9.97
2019-05-09T04:44:37.363Z,12.20
2019-05-09T04:47:08.781Z,12.70
2019-05-09T04:49:41.145Z,8.97
2019-05-09T04:52:09.594Z,13.90
2019-05-09T04:54:39.340Z,11.37
2019-05-09T04:57:08.873Z,10.57
2019-05-09T04:59:38.586Z,8.23
2019-05-09T05:02:27.534Z,8.17
2019-05-09T05:04:58.545Z,7.90
2019-05-09T05:07:28.847Z,10.00
2019-05-09T05:09:58.686Z,9.87
2019-05-09T05:12:28.561Z,10.23
2019-05-09T05:14:58.230Z,8.63
2019-05-09T05:17:30.486Z,9.07
2019-05-09T05:20:00.249Z,9.67
2019-05-09T05:22:47.857Z,10.87
2019-05-09T05:25:17.913Z,8.13
2019-05-09T05:27:47.602Z,13.63
2019-05-09T05:30:18.074Z,12.87
2019-05-09T05:32:57.846Z,11.70
2019-05-09T05:35:49.440Z,12.97
2019-05-09T05:38:19.137Z,10.90
2019-05-09T05:40:49.956Z,14.07
2019-05-09T05:43:19.747Z,9.80
2019-05-09T05:46:08.358Z,9.87
2019-05-09T05:48:39.335Z,11.60
2019-05-09T05:51:09.169Z,10.43
2019-05-09T05:53:38.856Z,9.00
2019-05-09T05:56:08.602Z,9.80
2019-05-09T05:58:38.703Z,10.03
2019-05-09T06:01:08.482Z,9.20
2019-05-09T06:03:38.131Z,11.87
2019-05-09T06:06:08.809Z,11.20
2019-05-09T06:08:38.406Z,10.17
2019-05-09T06:11:11.882Z,11.30
2019-05-09T06:13:53.244Z,13.33
2019-05-09T06:16:10.841Z,13.27
2019-05-09T06:18:40.609Z,11.47
2019-05-09T06:21:10.126Z,10.57
2019-05-09T06:23:39.783Z,9.20
2019-05-09T06:26:10.323Z,8.30
2019-05-09T06:28:40.119Z,9.73
2019-05-09T06:31:09.826Z,10.30
2019-05-09T06:33:46.526Z,11.47
2019-05-09T06:36:11.238Z,10.83
2019-05-09T06:38:41.017Z,10.80
2019-05-09T06:41:12.266Z,11.10
2019-05-09T06:43:43.141Z,10.67
2019-05-09T06:46:40.645Z,10.13
2019-05-09T06:49:24.346Z,11.17
2019-05-09T06:51:44.839Z,11.77
2019-05-09T06:54:14.294Z,12.47
2019-05-09T06:56:44.089Z,11.87
2019-05-09T06:59:13.695Z,11.70
2019-05-09T07:02:08.442Z,11.17
2019-05-09T07:04:54.028Z,10.53
2019-05-09T07:07:44.526Z,12.57
2019-05-09T07:10:14.574Z,9.83
2019-05-09T07:12:43.992Z,10.23
2019-05-09T07:15:13.622Z,11.00
2019-05-09T07:17:43.276Z,9.17
2019-05-09T07:20:13.070Z,8.13
2019-05-09T07:22:48.125Z,8.43
2019-05-09T07:25:47.834Z,7.47
2019-05-09T07:28:18.115Z,8.33
2019-05-09T07:31:11.683Z,8.80
2019-05-09T07:34:03.086Z,7.30
2019-05-09T07:36:32.648Z,8.00
2019-05-09T07:39:02.419Z,7.13
2019-05-09T07:41:33.737Z,7.43
2019-05-09T07:44:03.605Z,7.13
2019-05-09T07:46:34.739Z,6.80
2019-05-09T07:49:08.627Z,7.27
2019-05-09T07:51:38.340Z,7.40
2019-05-09T07:54:20.646Z,7.30
2019-05-09T07:56:39.533Z,7.10
2019-05-09T07:59:09.196Z,7.00
2019-05-09T08:01:38.815Z,6.70
2019-05-09T08:04:08.545Z,6.93
2019-05-09T08:06:38.181Z,7.60
2019-05-09T08:09:08.647Z,7.63
2019-05-09T08:11:41.209Z,8.50
2019-05-09T08:14:11.416Z,6.77
2019-05-09T08:16:41.017Z,7.37
2019-05-09T08:19:11.497Z,6.97
2019-05-09T08:21:41.703Z,6.77
2019-05-09T08:24:11.925Z,6.97
2019-05-09T08:26:41.823Z,8.07
2019-05-09T08:29:11.662Z,6.80
2019-05-09T08:31:41.448Z,6.40
2019-05-09T08:34:11.291Z,6.20
2019-05-09T08:36:40.829Z,6.17
2019-05-09T08:39:10.444Z,7.53
2019-05-09T08:41:40.178Z,8.97
2019-05-09T08:44:10.049Z,7.43
2019-05-09T08:46:39.806Z,6.73
2019-05-09T08:49:09.655Z,9.00
2019-05-09T08:51:55.662Z,7.47
2019-05-09T08:54:34.793Z,6.33
2019-05-09T08:57:04.323Z,6.67
2019-05-09T08:59:34.186Z,6.73
2019-05-09T09:02:15.726Z,6.83
2019-05-09T09:04:38.157Z,6.47
2019-05-09T09:07:08.365Z,6.50
2019-05-09T09:09:38.350Z,6.70
2019-05-09T09:12:25.229Z,6.70
2019-05-09T09:14:39.845Z,6.77
2019-05-09T09:17:09.591Z,6.40
2019-05-09T09:19:39.330Z,6.80
2019-05-09T09:22:09.217Z,5.17
2019-05-09T09:24:39.046Z,9.97
2019-05-09T09:27:08.878Z,5.83
2019-05-09T09:29:38.680Z,6.23
2019-05-09T09:32:08.637Z,8.83
2019-05-09T09:34:38.618Z,6.17
2019-05-09T09:37:11.472Z,7.40
2019-05-09T09:39:44.559Z,5.47
2019-05-09T09:42:11.425Z,5.30
2019-05-09T09:44:41.089Z,6.80
2019-05-09T09:47:11.152Z,5.87
2019-05-09T09:49:40.755Z,5.83
2019-05-09T09:52:10.739Z,6.20
2019-05-09T09:54:40.287Z,5.87
2019-05-09T09:57:10.198Z,6.23
2019-05-09T09:59:48.460Z,5.80
2019-05-09T10:02:19.848Z,8.13
2019-05-09T10:04:49.755Z,9.10
2019-05-09T10:07:19.641Z,8.00
2019-05-09T10:09:49.680Z,9.87
2019-05-09T10:12:19.294Z,10.23
2019-05-09T10:14:58.802Z,10.40
2019-05-09T10:17:49.804Z,12.03
2019-05-09T10:20:32.860Z,10.80
2019-05-09T10:23:11.037Z,13.23
2019-05-09T10:25:34.212Z,10.83
2019-05-09T10:28:04.140Z,12.83
2019-05-09T10:30:38.008Z,10.27
2019-05-09T10:33:09.243Z,10.23
2019-05-09T10:35:39.159Z,9.90
2019-05-09T10:38:09.224Z,8.83
2019-05-09T10:40:40.360Z,8.60
2019-05-09T10:43:33.985Z,7.53
2019-05-09T10:46:19.335Z,8.37
2019-05-09T10:48:54.959Z,5.97
2019-05-09T10:51:24.571Z,6.73
2019-05-09T10:53:54.370Z,6.27
2019-05-09T10:56:24.195Z,6.07
2019-05-09T10:58:53.981Z,8.47
2019-05-09T11:01:23.519Z,8.43
2019-05-09T11:03:53.273Z,6.47
2019-05-09T11:06:22.869Z,6.77
2019-05-09T11:08:52.594Z,5.67
2019-05-09T11:11:22.614Z,6.93
2019-05-09T11:13:52.160Z,9.27
2019-05-09T11:16:22.061Z,6.97
2019-05-09T11:18:51.771Z,5.43
2019-05-09T11:21:21.584Z,6.80
2019-05-09T11:23:51.116Z,5.37
2019-05-09T11:26:20.639Z,5.33
2019-05-09T11:28:50.508Z,5.07
2019-05-09T11:31:20.563Z,6.50
2019-05-09T11:33:50.463Z,5.05
2019-05-09T11:36:21.218Z,5.05
2019-05-09T11:38:51.183Z,5.78
2019-05-09T11:41:21.057Z,5.20
2019-05-09T11:43:52.084Z,5.55
2019-05-09T11:46:21.762Z,5.37
2019-05-09T11:48:51.289Z,5.13
2019-05-09T11:51:22.881Z,5.47
2019-05-09T11:53:52.111Z,6.33
2019-05-09T11:56:22.004Z,5.17
2019-05-09T11:58:51.488Z,5.77
2019-05-09T12:01:21.054Z,5.60
2019-05-09T12:03:52.390Z,5.50
2019-05-09T12:06:22.366Z,5.87
2019-05-09T12:08:51.851Z,8.10
2019-05-09T12:11:21.266Z,6.70
2019-05-09T12:13:50.685Z,7.30
2019-05-09T12:16:20.560Z,7.77
2019-05-09T12:18:50.256Z,5.10
2019-05-09T12:21:19.968Z,4.97
2019-05-09T12:23:50.065Z,5.40
2019-05-09T12:26:19.617Z,5.20
2019-05-09T12:28:49.492Z,7.30
2019-05-09T12:31:19.198Z,6.80
2019-05-09T12:33:48.749Z,8.73
2019-05-09T12:36:19.142Z,8.67
2019-05-09T12:38:50.224Z,6.90
2019-05-09T12:41:20.208Z,6.60
2019-05-09T12:43:50.003Z,6.77
2019-05-09T12:46:19.746Z,8.43
2019-05-09T12:48:49.572Z,7.67
2019-05-09T12:51:19.351Z,7.90
2019-05-09T12:53:49.138Z,8.03
2019-05-09T12:56:18.970Z,6.40
2019-05-09T12:58:48.734Z,5.67
2019-05-09T13:01:19.018Z,6.40
2019-05-09T13:03:48.771Z,6.40
2019-05-09T13:06:19.955Z,7.47
2019-05-09T13:08:50.277Z,7.60
2019-05-09T13:11:20.262Z,8.47
2019-05-09T13:13:50.095Z,7.20
2019-05-09T13:16:49.030Z,7.83
2019-05-09T13:19:14.847Z,11.17
2019-05-09T13:21:44.250Z,7.67
2019-05-09T13:24:13.720Z,7.33
2019-05-09T13:26:44.874Z,7.50
2019-05-09T13:29:14.666Z,8.00
2019-05-09T13:31:44.367Z,8.00
2019-05-09T13:34:14.237Z,8.40
2019-05-09T13:36:44.160Z,7.40
2019-05-09T13:39:13.898Z,8.03
2019-05-09T13:41:43.689Z,8.47
2019-05-09T13:44:14.140Z,10.00
2019-05-09T13:46:44.196Z,7.80
2019-05-09T13:49:15.600Z,8.37
2019-05-09T13:51:51.031Z,6.93
2019-05-09T13:54:18.472Z,7.63
2019-05-09T13:56:54.978Z,9.13
2019-05-09T13:59:19.927Z,8.93
2019-05-09T14:01:49.713Z,8.03
2019-05-09T14:04:19.276Z,10.30
2019-05-09T14:06:49.099Z,7.53
2019-05-09T14:09:20.144Z,9.15
2019-05-09T14:11:49.994Z,10.78
2019-05-09T14:14:19.588Z,8.50
2019-05-09T14:16:49.330Z,7.90
2019-05-09T14:19:38.592Z,9.03
2019-05-09T14:21:50.014Z,9.20
2019-05-09T14:24:19.558Z,9.50
2019-05-09T14:26:49.219Z,8.97
2019-05-09T14:29:20.467Z,9.20
2019-05-09T14:31:50.553Z,9.20
2019-05-09T14:34:20.327Z,9.17
2019-05-09T14:36:50.118Z,9.70
2019-05-09T14:39:19.829Z,11.23
2019-05-09T14:41:49.559Z,11.20
2019-05-09T14:44:19.004Z,10.97
2019-05-09T14:46:48.898Z,10.47
2019-05-09T14:49:18.778Z,9.60
2019-05-09T14:51:49.982Z,11.60
2019-05-09T14:54:19.989Z,10.33
2019-05-09T14:56:49.955Z,10.93
2019-05-09T14:59:19.749Z,12.30
2019-05-09T15:01:49.794Z,10.30
2019-05-09T15:04:19.623Z,9.97
2019-05-09T15:06:49.449Z,10.60
2019-05-09T15:09:18.954Z,10.17
2019-05-09T15:11:48.860Z,10.10
2019-05-09T15:14:18.419Z,11.43
2019-05-09T15:16:48.682Z,13.43
2019-05-09T15:19:18.668Z,11.53
2019-05-09T15:21:48.984Z,12.17
2019-05-09T15:24:19.318Z,12.27
2019-05-09T15:26:49.405Z,14.47
2019-05-09T15:29:18.841Z,15.70
2019-05-09T15:31:54.749Z,14.20
2019-05-09T15:34:19.918Z,13.87
2019-05-09T15:36:49.333Z,12.77
2019-05-09T15:39:18.763Z,38.73
2019-05-09T15:41:48.300Z,44.63
2019-05-09T15:44:18.642Z,13.07
2019-05-09T15:46:52.739Z,13.47
2019-05-09T15:49:22.159Z,12.27
2019-05-09T15:51:51.685Z,14.80
2019-05-09T15:54:21.188Z,15.63
2019-05-09T15:56:50.993Z,11.50
2019-05-09T15:59:20.650Z,11.93
2019-05-09T16:01:50.448Z,14.93
2019-05-09T16:04:20.336Z,35.40
2019-05-09T16:06:51.621Z,42.17
2019-05-09T16:09:21.566Z,63.97
2019-05-09T16:11:51.323Z,55.97
2019-05-09T16:14:21.077Z,46.63
2019-05-09T16:16:50.785Z,33.97
2019-05-09T16:19:20.576Z,22.10
2019-05-09T16:21:50.366Z,17.33
2019-05-09T16:24:19.812Z,16.23
2019-05-09T16:26:50.016Z,15.30
2019-05-09T16:29:19.517Z,20.13
2019-05-09T16:31:49.145Z,22.43
2019-05-09T16:34:18.978Z,15.83
2019-05-09T16:36:48.786Z,14.63
2019-05-09T16:39:18.433Z,14.37
2019-05-09T16:41:48.784Z,16.53
2019-05-09T16:44:18.726Z,17.27
2019-05-09T16:46:48.798Z,20.70
2019-05-09T16:49:19.818Z,30.67
2019-05-09T16:51:49.965Z,41.40
2019-05-09T16:54:20.176Z,31.67
2019-05-09T16:56:49.952Z,19.87
2019-05-09T16:59:19.807Z,36.63
2019-05-09T17:01:50.404Z,41.23
2019-05-09T17:04:20.270Z,38.47
2019-05-09T17:06:50.028Z,23.00
2019-05-09T17:09:19.872Z,27.10
2019-05-09T17:11:49.671Z,25.93
2019-05-09T17:14:19.586Z,28.27
2019-05-09T17:16:52.650Z,22.70
2019-05-09T17:19:20.912Z,18.53
2019-05-09T17:21:59.596Z,22.53
2019-05-09T17:24:29.929Z,21.47
2019-05-09T17:26:59.797Z,20.73
2019-05-09T17:29:29.687Z,23.13
2019-05-09T17:31:59.448Z,19.03
2019-05-09T17:34:29.250Z,18.30
2019-05-09T17:36:58.945Z,15.93
2019-05-09T17:39:28.830Z,15.63
2019-05-09T17:41:58.735Z,18.73
2019-05-09T17:44:28.314Z,21.60
2019-05-09T17:46:58.274Z,17.17
2019-05-09T17:49:28.232Z,15.57
2019-05-09T17:51:58.573Z,17.00
2019-05-09T17:54:28.917Z,17.83
2019-05-09T17:56:58.681Z,17.50
2019-05-09T17:59:29.291Z,15.47
2019-05-09T18:01:58.896Z,15.37
2019-05-09T18:04:28.993Z,16.30
2019-05-09T18:06:58.859Z,13.93
2019-05-09T18:09:28.864Z,14.10
2019-05-09T18:11:58.665Z,20.80
2019-05-09T18:14:28.439Z,35.20
2019-05-09T18:16:58.388Z,34.63
2019-05-09T18:19:29.327Z,22.97
2019-05-09T18:21:59.753Z,14.33
2019-05-09T18:24:29.431Z,14.77
2019-05-09T18:26:59.126Z,15.13
2019-05-09T18:29:28.978Z,14.33
2019-05-09T18:32:08.796Z,14.80
2019-05-09T18:34:38.247Z,14.17
2019-05-09T18:37:08.197Z,15.57
2019-05-09T18:39:38.128Z,15.53
2019-05-09T18:42:08.809Z,15.50
2019-05-09T18:44:38.604Z,18.10
2019-05-09T18:47:08.025Z,16.63
2019-05-09T18:49:37.883Z,17.60
2019-05-09T18:52:07.793Z,17.10
2019-05-09T18:54:37.650Z,16.30
2019-05-09T18:57:07.346Z,15.23
2019-05-09T18:59:36.797Z,16.13
2019-05-09T19:02:06.747Z,15.90
2019-05-09T19:04:36.523Z,15.17
2019-05-09T19:07:21.314Z,15.07
2019-05-09T19:09:37.748Z,14.30
2019-05-09T19:12:07.481Z,15.87
2019-05-09T19:14:37.341Z,14.87
2019-05-09T19:17:29.203Z,15.23
2019-05-09T19:20:16.589Z,16.43
2019-05-09T19:22:46.411Z,17.87
2019-05-09T19:25:16.507Z,17.83
2019-05-09T19:27:46.386Z,17.20
2019-05-09T19:30:15.894Z,18.43
2019-05-09T19:32:45.309Z,17.00
2019-05-09T19:35:15.388Z,16.30
2019-05-09T19:37:45.155Z,16.63
2019-05-09T19:40:20.019Z,17.07
2019-05-09T19:42:46.645Z,15.53
2019-05-09T19:45:17.082Z,15.00
2019-05-09T19:47:46.597Z,14.07
2019-05-09T19:50:16.608Z,14.73
2019-05-09T19:52:46.307Z,14.10
2019-05-09T19:55:15.838Z,16.07
2019-05-09T19:57:45.457Z,18.60
2019-05-09T20:00:17.343Z,19.63
2019-05-09T20:02:46.880Z,17.27
2019-05-09T20:05:17.055Z,15.93
2019-05-09T20:07:46.479Z,16.23
2019-05-09T20:10:44.416Z,17.00
2019-05-09T20:13:38.902Z,16.97
2019-05-09T20:16:08.803Z,17.00
2019-05-09T20:18:38.240Z,18.83
2019-05-09T20:21:07.659Z,25.30
2019-05-09T20:23:37.425Z,30.37
2019-05-09T20:26:07.007Z,28.83
2019-05-09T20:28:36.717Z,33.10
2019-05-09T20:31:06.457Z,31.30
2019-05-09T20:33:36.241Z,26.00
2019-05-09T20:36:06.026Z,25.27
2019-05-09T20:38:35.908Z,26.60
2019-05-09T20:41:05.583Z,22.93
2019-05-09T20:43:35.462Z,23.90
2019-05-09T20:46:05.389Z,21.83
2019-05-09T20:48:35.241Z,21.57
2019-05-09T20:51:05.045Z,21.87
2019-05-09T20:53:34.638Z,22.97
2019-05-09T20:56:04.743Z,21.17
2019-05-09T20:58:34.766Z,25.77
2019-05-09T21:01:04.770Z,22.83
2019-05-09T21:03:34.551Z,20.80
2019-05-09T21:06:04.176Z,20.07
2019-05-09T21:08:34.617Z,18.30
2019-05-09T21:11:04.318Z,19.93
2019-05-09T21:13:47.325Z,20.93
2019-05-09T21:16:06.053Z,24.03
2019-05-09T21:18:35.818Z,24.73
2019-05-09T21:21:05.918Z,22.53
2019-05-09T21:23:35.951Z,21.37
2019-05-09T21:26:05.961Z,23.50
2019-05-09T21:28:35.643Z,19.70
2019-05-09T21:31:05.456Z,19.87
2019-05-09T21:33:35.463Z,20.60
2019-05-09T21:36:05.215Z,22.73
2019-05-09T21:38:34.702Z,17.90
2019-05-09T21:41:04.488Z,19.17
2019-05-09T21:43:34.013Z,22.30
2019-05-09T21:46:03.507Z,19.63
2019-05-09T21:48:33.246Z,23.17
2019-05-09T21:51:02.753Z,21.73
2019-05-09T21:53:40.450Z,23.73
2019-05-09T21:56:04.108Z,23.73
2019-05-09T21:58:33.824Z,24.07
2019-05-09T22:01:04.054Z,21.13
2019-05-09T22:03:33.763Z,23.03
2019-05-09T22:06:03.392Z,22.57
2019-05-09T22:08:32.851Z,21.33
2019-05-09T22:11:02.302Z,18.13
2019-05-09T22:13:32.031Z,18.10
2019-05-09T22:16:01.780Z,21.20
2019-05-09T22:18:31.496Z,19.93
2019-05-09T22:21:00.989Z,20.83
2019-05-09T22:23:30.852Z,21.40
2019-05-09T22:26:00.726Z,21.67
2019-05-09T22:28:30.151Z,22.33
2019-05-09T22:30:59.575Z,21.33
2019-05-09T22:33:29.260Z,20.70
2019-05-09T22:35:58.767Z,21.10
2019-05-09T22:38:28.195Z,22.63
2019-05-09T22:40:58.050Z,21.77
2019-05-09T22:43:27.654Z,23.33
2019-05-09T22:45:57.433Z,20.70
2019-05-09T22:48:27.188Z,21.43
2019-05-09T22:50:56.728Z,21.40
2019-05-09T22:53:26.274Z,20.90
2019-05-09T22:55:56.094Z,22.77
2019-05-09T22:58:25.927Z,21.90
2019-05-09T23:00:55.728Z,22.20
2019-05-09T23:03:25.318Z,21.03
2019-05-09T23:05:54.832Z,20.30
2019-05-09T23:08:24.345Z,20.07
2019-05-09T23:10:54.099Z,21.37
2019-05-09T23:13:23.755Z,20.63
2019-05-09T23:15:53.622Z,19.53
2019-05-09T23:18:23.391Z,19.13
2019-05-09T23:20:55.624Z,19.87
2019-05-09T23:23:38.382Z,20.97
2019-05-09T23:26:08.289Z,20.73
2019-05-09T23:28:37.712Z,22.70
2019-05-09T23:31:11.503Z,19.77
2019-05-09T23:33:42.443Z,20.37
2019-05-09T23:36:11.937Z,19.87
2019-05-09T23:39:00.704Z,18.83
2019-05-09T23:41:30.454Z,19.80
2019-05-09T23:44:00.221Z,20.60
2019-05-09T23:46:29.718Z,19.37
2019-05-09T23:48:59.510Z,19.80
2019-05-09T23:51:45.040Z,20.30
2019-05-09T23:54:45.226Z,19.40
2019-05-09T23:57:24.075Z,21.30
